createdAt,value
2019-01-05T00:00:04.157Z,96975.00
2019-01-05T00:02:54.934Z,96973.00
2019-01-05T00:05:54.502Z,96971.00
2019-01-05T00:08:49.494Z,96988.00
2019-01-05T00:11:40.516Z,96974.00
2019-01-05T00:14:46.806Z,96977.00
2019-01-05T00:17:36.330Z,96964.00
2019-01-05T00:20:25.993Z,96973.00
2019-01-05T00:23:21.131Z,96961.00
2019-01-05T00:26:12.507Z,96964.00
2019-01-05T00:29:08.644Z,96957.00
2019-01-05T00:32:46.913Z,96947.00
2019-01-05T00:35:49.000Z,96950.00
2019-01-05T00:38:52.612Z,96951.00
2019-01-05T00:41:48.669Z,96945.00
2019-01-05T00:44:38.098Z,96950.00
2019-01-05T00:47:24.131Z,96947.00
2019-01-05T00:50:12.175Z,96953.00
2019-01-05T00:53:02.818Z,96953.00
2019-01-05T00:56:14.822Z,96951.00
2019-01-05T00:59:06.777Z,96954.00
2019-01-05T01:01:58.961Z,96961.00
2019-01-05T01:05:05.349Z,96959.00
2019-01-05T01:08:05.277Z,96966.00
2019-01-05T01:10:55.554Z,96960.00
2019-01-05T01:13:53.208Z,96966.00
2019-01-05T01:16:42.871Z,96966.00
2019-01-05T01:19:42.815Z,96966.00
2019-01-05T01:22:35.329Z,96971.00
2019-01-05T01:25:26.388Z,96967.00
2019-01-05T01:28:29.873Z,96953.00
2019-01-05T01:31:14.103Z,96955.00
2019-01-05T01:34:05.766Z,96946.00
2019-01-05T01:37:09.177Z,96943.00
2019-01-05T01:40:07.416Z,96939.00
2019-01-05T01:42:57.563Z,96929.00
2019-01-05T01:45:49.325Z,96919.00
2019-01-05T01:48:39.788Z,96928.00
2019-01-05T01:51:41.572Z,96933.00
2019-01-05T01:54:40.283Z,96915.00
2019-01-05T01:57:47.313Z,96918.00
2019-01-05T02:00:46.212Z,96907.00
2019-01-05T02:03:42.809Z,96906.00
2019-01-05T02:06:52.277Z,96907.00
2019-01-05T02:10:01.109Z,96915.00
2019-01-05T02:13:10.066Z,96901.00
2019-01-05T02:16:01.132Z,96912.00
2019-01-05T02:19:12.801Z,96910.00
2019-01-05T02:23:04.128Z,96906.00
2019-01-05T02:26:41.718Z,96905.00
2019-01-05T02:30:30.503Z,96906.00
2019-01-05T02:33:54.812Z,96900.00
2019-01-05T02:37:44.575Z,96898.00
2019-01-05T02:41:19.678Z,96895.00
2019-01-05T02:45:01.770Z,96892.00
2019-01-05T02:49:25.696Z,96879.00
2019-01-05T02:52:56.858Z,96883.00
2019-01-05T02:56:55.854Z,96871.00
2019-01-05T03:00:24.803Z,96880.00
2019-01-05T03:04:01.670Z,96871.00
2019-01-05T03:08:09.388Z,96854.00
2019-01-05T03:12:10.455Z,96855.00
2019-01-05T03:15:59.564Z,96840.00
2019-01-05T03:19:21.836Z,96833.00
2019-01-05T03:23:05.736Z,96802.00
2019-01-05T03:27:00.977Z,96801.00
2019-01-05T03:30:28.150Z,96801.00
2019-01-05T03:34:15.176Z,96797.00
2019-01-05T03:38:41.123Z,96797.00
2019-01-05T03:42:38.372Z,96790.00
2019-01-05T03:46:18.200Z,96771.00
2019-01-05T03:50:05.665Z,96759.00
2019-01-05T03:53:42.778Z,96755.00
2019-01-05T03:57:17.268Z,96757.00
2019-01-05T04:01:12.387Z,96734.00
2019-01-05T04:05:02.927Z,96726.00
2019-01-05T04:08:47.768Z,96729.00
2019-01-05T04:12:17.088Z,96725.00
2019-01-05T04:15:53.061Z,96708.00
2019-01-05T04:20:05.606Z,96711.00
2019-01-05T04:24:03.044Z,96711.00
2019-01-05T04:27:57.611Z,96711.00
2019-01-05T04:31:34.069Z,96709.00
2019-01-05T04:35:32.457Z,96710.00
2019-01-05T04:39:44.910Z,96687.00
2019-01-05T04:43:49.223Z,96695.00
2019-01-05T04:47:29.325Z,96678.00
2019-01-05T04:51:24.142Z,96679.00
2019-01-05T04:55:20.942Z,96678.00
2019-01-05T04:59:37.333Z,96662.00
2019-01-05T05:03:54.264Z,96663.00
2019-01-05T05:07:59.166Z,96659.00
2019-01-05T05:12:00.045Z,96654.00
2019-01-05T05:16:10.418Z,96642.00
2019-01-05T05:19:59.120Z,96638.00
2019-01-05T05:23:55.276Z,96626.00
2019-01-05T05:28:14.920Z,96632.00
2019-01-05T05:32:08.095Z,96621.00
2019-01-05T05:36:20.652Z,96620.00
2019-01-05T05:40:22.882Z,96621.00
2019-01-05T05:44:20.427Z,96628.00
2019-01-05T05:48:09.925Z,96615.00
2019-01-05T05:52:26.347Z,96621.00
2019-01-05T05:56:19.707Z,96614.00
2019-01-05T06:00:16.416Z,96611.00
2019-01-05T06:04:07.282Z,96612.00
2019-01-05T06:07:43.818Z,96599.00
2019-01-05T06:11:46.418Z,96608.00
2019-01-05T06:15:31.246Z,96600.00
2019-01-05T06:19:44.642Z,96598.00
2019-01-05T06:23:43.918Z,96611.00
2019-01-05T06:27:30.522Z,96615.00
2019-01-05T06:31:12.764Z,96613.00
2019-01-05T06:34:50.229Z,96609.00
2019-01-05T06:38:45.105Z,96594.00
2019-01-05T06:42:33.993Z,96599.00
2019-01-05T06:46:22.320Z,96587.00
2019-01-05T06:50:24.588Z,96586.00
2019-01-05T06:54:14.386Z,96582.00
2019-01-05T06:58:13.789Z,96586.00
2019-01-05T07:02:00.665Z,96584.00
2019-01-05T07:05:50.635Z,96583.00
2019-01-05T07:09:55.963Z,96586.00
2019-01-05T07:13:21.613Z,96572.00
2019-01-05T07:17:02.090Z,96587.00
2019-01-05T07:20:49.682Z,96572.00
2019-01-05T07:24:47.253Z,96548.00
2019-01-05T07:28:29.546Z,96556.00
2019-01-05T07:31:59.707Z,96555.00
2019-01-05T07:35:42.571Z,96565.00
2019-01-05T07:39:23.935Z,96573.00
2019-01-05T07:43:18.189Z,96562.00
2019-01-05T07:46:53.381Z,96554.00
2019-01-05T07:51:07.436Z,96562.00
2019-01-05T07:55:09.559Z,96570.00
2019-01-05T07:58:34.511Z,96567.00
2019-01-05T08:02:40.231Z,96572.00
2019-01-05T08:06:41.957Z,96583.00
2019-01-05T08:10:17.578Z,96566.00
2019-01-05T08:13:56.090Z,96567.00
2019-01-05T08:18:00.512Z,96555.00
2019-01-05T08:21:53.607Z,96555.00
2019-01-05T08:25:52.468Z,96552.00
2019-01-05T08:29:44.651Z,96533.00
2019-01-05T08:33:49.623Z,96537.00
2019-01-05T08:37:35.159Z,96543.00
2019-01-05T08:41:41.126Z,96542.00
2019-01-05T08:45:51.678Z,96554.00
2019-01-05T08:49:56.202Z,96548.00
2019-01-05T08:53:59.982Z,96556.00
2019-01-05T08:57:40.429Z,96568.00
2019-01-05T09:01:32.638Z,96565.00
2019-01-05T09:05:40.217Z,96585.00
2019-01-05T09:09:20.147Z,96564.00
2019-01-05T09:13:23.528Z,96570.00
2019-01-05T09:17:32.724Z,96577.00
2019-01-05T09:21:52.167Z,96571.00
2019-01-05T09:25:39.112Z,96559.00
2019-01-05T09:29:52.053Z,96560.00
2019-01-05T09:33:40.892Z,96554.00
2019-01-05T09:37:21.885Z,96542.00
2019-01-05T09:41:18.252Z,96538.00
2019-01-05T09:45:06.693Z,96541.00
2019-01-05T09:48:47.493Z,96536.00
2019-01-05T09:52:31.120Z,96533.00
2019-01-05T09:56:35.663Z,96536.00
2019-01-05T10:00:14.094Z,96536.00
2019-01-05T10:03:54.214Z,96534.00
2019-01-05T10:07:38.547Z,96529.00
2019-01-05T10:11:38.482Z,96530.00
2019-01-05T10:15:29.985Z,96518.00
2019-01-05T10:19:17.097Z,96534.00
2019-01-05T10:22:50.648Z,96539.00
2019-01-05T10:26:43.683Z,96542.00
2019-01-05T10:30:31.004Z,96547.00
2019-01-05T10:34:20.808Z,96539.00
2019-01-05T10:38:18.965Z,96525.00
2019-01-05T10:41:47.825Z,96516.00
2019-01-05T10:45:29.559Z,96521.00
2019-01-05T10:49:20.785Z,96510.00
2019-01-05T10:53:16.204Z,96518.00
2019-01-05T10:57:29.531Z,96514.00
2019-01-05T11:01:08.290Z,96518.00
2019-01-05T11:05:17.963Z,96508.00
2019-01-05T11:09:05.549Z,96508.00
2019-01-05T11:13:02.487Z,96509.00
2019-01-05T11:50:53.131Z,96496.00
2019-01-05T11:54:50.329Z,96490.00
2019-01-05T11:58:15.413Z,96488.00
2019-01-05T12:01:59.367Z,96478.00
2019-01-05T12:06:07.622Z,96473.00
2019-01-05T12:10:03.916Z,96472.00
2019-01-05T12:14:17.347Z,96465.00
2019-01-05T12:18:21.693Z,96459.00
2019-01-05T12:22:13.502Z,96463.00
2019-01-05T12:26:06.162Z,96450.00
2019-01-05T12:29:55.853Z,96441.00
2019-01-05T12:34:08.949Z,96443.00
2019-01-05T12:38:00.830Z,96447.00
2019-01-05T12:41:55.632Z,96440.00
2019-01-05T12:46:01.359Z,96445.00
2019-01-05T12:50:01.039Z,96445.00
2019-01-05T12:53:49.220Z,96437.00
2019-01-05T12:58:13.331Z,96447.00
2019-01-05T13:02:17.847Z,96425.00
2019-01-05T13:06:31.921Z,96452.00
2019-01-05T13:10:27.955Z,96441.00
2019-01-05T13:14:22.856Z,96447.00
2019-01-05T13:18:42.291Z,96448.00
2019-01-05T13:22:26.439Z,96447.00
2019-01-05T13:26:25.756Z,96451.00
2019-01-05T13:30:18.253Z,96445.00
2019-01-05T13:34:10.384Z,96452.00
2019-01-05T13:37:51.453Z,96456.00
2019-01-05T13:41:52.612Z,96450.00
2019-01-05T13:45:42.142Z,96454.00
2019-01-05T13:49:43.957Z,96464.00
2019-01-05T13:52:59.718Z,96459.00
2019-01-05T13:56:21.889Z,96450.00
2019-01-05T13:59:15.510Z,96457.00
2019-01-05T14:02:04.986Z,96469.00
2019-01-05T14:04:54.553Z,96465.00
2019-01-05T14:07:43.688Z,96473.00
2019-01-05T14:10:37.504Z,96462.00
2019-01-05T14:13:27.014Z,96479.00
2019-01-05T14:16:16.148Z,96484.00
2019-01-05T14:19:11.151Z,96462.00
2019-01-05T14:22:17.060Z,96480.00
2019-01-05T14:25:16.929Z,96486.00
2019-01-05T14:28:16.796Z,96460.00
2019-01-05T14:31:26.191Z,96491.00
2019-01-05T14:34:23.083Z,96479.00
2019-01-05T14:37:12.026Z,96480.00
2019-01-05T14:40:20.973Z,96499.00
2019-01-05T14:43:10.461Z,96504.00
2019-01-05T14:46:04.276Z,96498.00
2019-01-05T14:48:57.955Z,96504.00
2019-01-05T14:51:51.547Z,96494.00
2019-01-05T14:54:45.352Z,96498.00
2019-01-05T14:57:34.478Z,96506.00
2019-01-05T15:00:41.198Z,96503.00
2019-01-05T15:03:34.796Z,96507.00
2019-01-05T15:06:31.613Z,96508.00
2019-01-05T15:09:28.432Z,96511.00
2019-01-05T15:12:18.199Z,96509.00
2019-01-05T15:15:16.481Z,96511.00
2019-01-05T15:18:05.984Z,96514.00
2019-01-05T15:20:56.599Z,96518.00
2019-01-05T15:23:47.366Z,96509.00
2019-01-05T15:26:44.299Z,96509.00
2019-01-05T15:29:33.512Z,96510.00
2019-01-05T15:32:36.471Z,96520.00
2019-01-05T15:35:33.263Z,96515.00
2019-01-05T15:38:35.922Z,96503.00
2019-01-05T15:41:25.084Z,96516.00
2019-01-05T15:44:14.166Z,96507.00
2019-01-05T15:47:13.733Z,96515.00
2019-01-05T15:50:02.870Z,96517.00
2019-01-05T15:53:11.562Z,96514.00
2019-01-05T15:56:02.371Z,96508.00
2019-01-05T15:59:02.275Z,96511.00
2019-01-05T16:01:53.322Z,96512.00
2019-01-05T16:04:54.557Z,96520.00
2019-01-05T16:07:54.298Z,96534.00
2019-01-05T16:10:59.978Z,96513.00
2019-01-05T16:13:52.019Z,96512.00
2019-01-05T16:16:41.242Z,96513.00
2019-01-05T16:19:32.293Z,96520.00
2019-01-05T16:22:21.533Z,96531.00
2019-01-05T16:25:10.689Z,96530.00
2019-01-05T16:28:00.130Z,96528.00
2019-01-05T16:30:50.889Z,96539.00
2019-01-05T16:33:53.803Z,96521.00
2019-01-05T16:36:57.408Z,96528.00
2019-01-05T16:40:00.321Z,96541.00
2019-01-05T16:42:49.488Z,96535.00
2019-01-05T16:45:43.261Z,96529.00
2019-01-05T16:48:36.838Z,96535.00
2019-01-05T16:51:26.452Z,96537.00
2019-01-05T16:54:15.649Z,96539.00
2019-01-05T16:57:02.011Z,96533.00
2019-01-05T16:59:55.818Z,96525.00
2019-01-05T17:02:56.642Z,96531.00
2019-01-05T17:05:53.429Z,96522.00
2019-01-05T17:08:51.407Z,96536.00
2019-01-05T17:11:40.775Z,96537.00
2019-01-05T17:14:30.003Z,96540.00
2019-01-05T17:17:36.072Z,96538.00
2019-01-05T17:20:25.331Z,96545.00
2019-01-05T17:23:24.983Z,96524.00
2019-01-05T17:26:27.547Z,96528.00
2019-01-05T17:29:17.225Z,96543.00
2019-01-05T17:32:17.094Z,96540.00
2019-01-05T17:35:19.871Z,96536.00
2019-01-05T17:38:02.527Z,96541.00
2019-01-05T17:41:02.056Z,96538.00
2019-01-05T17:43:50.596Z,96537.00
2019-01-05T17:46:40.400Z,96546.00
2019-01-05T17:49:40.253Z,96555.00
2019-01-05T17:52:29.893Z,96536.00
2019-01-05T17:55:19.497Z,96551.00
2019-01-05T17:58:19.522Z,96559.00
2019-01-05T18:01:20.157Z,96552.00
2019-01-05T18:04:23.468Z,96551.00
2019-01-05T18:07:12.918Z,96558.00
2019-01-05T18:10:18.997Z,96549.00
2019-01-05T18:13:16.568Z,96551.00
2019-01-05T18:16:20.067Z,96552.00
2019-01-05T18:19:16.636Z,96558.00
2019-01-05T18:22:16.303Z,96560.00
2019-01-05T18:25:08.321Z,96564.00
2019-01-05T18:28:05.480Z,96567.00
2019-01-05T18:30:59.341Z,96563.00
2019-01-05T18:33:50.363Z,96567.00
2019-01-05T18:36:42.407Z,96573.00
2019-01-05T18:39:49.789Z,96568.00
2019-01-05T18:42:46.980Z,96567.00
2019-01-05T18:45:53.590Z,96578.00
2019-01-05T18:48:43.822Z,96569.00
2019-01-05T18:51:34.139Z,96571.00
2019-01-05T18:54:23.755Z,96582.00
2019-01-05T18:57:14.362Z,96567.00
2019-01-05T19:00:05.314Z,96572.00
2019-01-05T19:02:54.470Z,96573.00
2019-01-05T19:06:00.366Z,96569.00
2019-01-05T19:08:51.120Z,96570.00
2019-01-05T19:11:45.073Z,96567.00
2019-01-05T19:14:38.500Z,96569.00
2019-01-05T19:17:28.061Z,96577.00
2019-01-05T19:20:35.021Z,96575.00
2019-01-05T19:23:32.626Z,96572.00
2019-01-05T19:26:26.658Z,96582.00
2019-01-05T19:29:18.155Z,96574.00
2019-01-05T19:32:07.349Z,96585.00
2019-01-05T19:35:00.963Z,96590.00
2019-01-05T19:37:50.535Z,96576.00
2019-01-05T19:40:47.232Z,96592.00
2019-01-05T19:43:37.995Z,96577.00
2019-01-05T19:46:40.789Z,96580.00
2019-01-05T19:49:29.774Z,96581.00
2019-01-05T19:52:20.553Z,96576.00
2019-01-05T19:55:10.001Z,96576.00
2019-01-05T19:57:59.590Z,96585.00
2019-01-05T20:01:05.332Z,96574.00
2019-01-05T20:04:02.055Z,96575.00
2019-01-05T20:06:51.526Z,96572.00
2019-01-05T20:09:35.062Z,96580.00
2019-01-05T20:12:37.615Z,96568.00
2019-01-05T20:15:44.448Z,96569.00
2019-01-05T20:18:45.052Z,96568.00
2019-01-05T20:21:37.367Z,96568.00
2019-01-05T20:24:27.931Z,96562.00
2019-01-05T20:27:18.480Z,96566.00
2019-01-05T20:30:10.256Z,96564.00
2019-01-05T20:33:00.629Z,96560.00
2019-01-05T20:36:10.267Z,96571.00
2019-01-05T20:39:18.371Z,96564.00
2019-01-05T20:42:09.033Z,96575.00
2019-01-05T20:44:59.474Z,96566.00
2019-01-05T20:48:00.785Z,96580.00
2019-01-05T20:50:51.412Z,96580.00
2019-01-05T20:53:42.252Z,96575.00
2019-01-05T20:56:33.710Z,96582.00
2019-01-05T20:59:43.987Z,96582.00
2019-01-05T21:02:48.736Z,96579.00
2019-01-05T21:05:52.494Z,96572.00
2019-01-05T21:08:44.633Z,96578.00
2019-01-05T21:11:39.817Z,96574.00
2019-01-05T21:14:44.247Z,96578.00
2019-01-05T21:17:34.791Z,96587.00
2019-01-05T21:20:38.056Z,96581.00
2019-01-05T21:23:28.416Z,96589.00
2019-01-05T21:26:24.483Z,96576.00
2019-01-05T21:29:23.311Z,96586.00
2019-01-05T21:32:16.000Z,96581.00
2019-01-05T21:35:07.541Z,96576.00
2019-01-05T21:38:07.089Z,96579.00
2019-01-05T21:41:02.406Z,96575.00
2019-01-05T21:44:06.585Z,96581.00
2019-01-05T21:47:01.747Z,96576.00
2019-01-05T21:50:03.564Z,96578.00
2019-01-05T21:53:03.832Z,96575.00
2019-01-05T21:55:52.764Z,96574.00
2019-01-05T21:58:45.717Z,96578.00
2019-01-05T22:01:47.215Z,96577.00
2019-01-05T22:04:45.840Z,96582.00
2019-01-05T22:07:44.847Z,96572.00
2019-01-05T22:10:42.269Z,96584.00
2019-01-05T22:13:35.719Z,96577.00
2019-01-05T22:16:27.503Z,96582.00
2019-01-05T22:19:19.596Z,96569.00
2019-01-05T22:22:30.308Z,96582.00
2019-01-05T22:25:21.083Z,96580.00
2019-01-05T22:28:20.679Z,96585.00
2019-01-05T22:31:18.640Z,96582.00
2019-01-05T22:34:10.103Z,96584.00
2019-01-05T22:37:01.189Z,96584.00
2019-01-05T22:39:51.807Z,96582.00
2019-01-05T22:43:00.961Z,96581.00
2019-01-05T22:45:52.277Z,96580.00
2019-01-05T22:48:54.741Z,96582.00
2019-01-05T22:52:00.992Z,96585.00
2019-01-05T22:54:51.409Z,96581.00
2019-01-05T22:57:49.556Z,96587.00
2019-01-05T23:00:40.405Z,96588.00
2019-01-05T23:03:41.648Z,96584.00
2019-01-05T23:06:31.516Z,96586.00
2019-01-05T23:09:26.893Z,96595.00
2019-01-05T23:12:18.389Z,96589.00
2019-01-05T23:15:11.330Z,96587.00
2019-01-05T23:18:03.275Z,96590.00
2019-01-05T23:21:04.120Z,96587.00
2019-01-05T23:23:56.913Z,96597.00
2019-01-05T23:26:49.122Z,96590.00
2019-01-05T23:29:59.803Z,96588.00
2019-01-05T23:32:51.917Z,96588.00
2019-01-05T23:35:39.645Z,96578.00
2019-01-05T23:38:50.317Z,96584.00
2019-01-05T23:41:53.363Z,96590.00
2019-01-05T23:44:44.886Z,96586.00
2019-01-05T23:47:48.818Z,96582.00
2019-01-05T23:50:38.223Z,96579.00
2019-01-05T23:53:26.937Z,96578.00
2019-01-05T23:56:17.750Z,96580.00
2019-01-05T23:59:07.716Z,96589.00
